sensor_id;sensor_type;location;lat;lon;timestamp;P1;durP1;ratioP1;P2;durP2;ratioP2
6529;SDS011;3298;42.688;23.366;2023-02-08T00:01:22;14.27;;;9.20;;
6529;SDS011;3298;42.688;23.366;2023-02-08T00:03:50;14.87;;;10.10;;
6529;SDS011;3298;42.688;23.366;2023-02-08T00:06:17;13.60;;;8.80;;
6529;SDS011;3298;42.688;23.366;2023-02-08T00:08:44;11.20;;;7.73;;
6529;SDS011;3298;42.688;23.366;2023-02-08T00:11:11;12.50;;;8.87;;
6529;SDS011;3298;42.688;23.366;2023-02-08T00:13:39;16.17;;;9.90;;
6529;SDS011;3298;42.688;23.366;2023-02-08T00:16:06;15.10;;;9.73;;
6529;SDS011;3298;42.688;23.366;2023-02-08T00:18:35;16.53;;;10.20;;
6529;SDS011;3298;42.688;23.366;2023-02-08T00:21:05;18.07;;;8.27;;
6529;SDS011;3298;42.688;23.366;2023-02-08T00:23:33;13.60;;;8.33;;
6529;SDS011;3298;42.688;23.366;2023-02-08T00:26:00;13.20;;;9.17;;
6529;SDS011;3298;42.688;23.366;2023-02-08T00:28:27;15.60;;;8.67;;
6529;SDS011;3298;42.688;23.366;2023-02-08T00:30:54;14.97;;;9.20;;
6529;SDS011;3298;42.688;23.366;2023-02-08T00:33:20;13.20;;;8.00;;
6529;SDS011;3298;42.688;23.366;2023-02-08T00:35:49;17.43;;;9.87;;
6529;SDS011;3298;42.688;23.366;2023-02-08T00:38:15;10.20;;;8.47;;
6529;SDS011;3298;42.688;23.366;2023-02-08T00:40:42;12.30;;;9.07;;
6529;SDS011;3298;42.688;23.366;2023-02-08T00:43:09;15.87;;;8.90;;
6529;SDS011;3298;42.688;23.366;2023-02-08T00:45:36;13.73;;;9.43;;
6529;SDS011;3298;42.688;23.366;2023-02-08T00:48:02;13.40;;;9.43;;
6529;SDS011;3298;42.688;23.366;2023-02-08T00:50:29;13.67;;;9.00;;
6529;SDS011;3298;42.688;23.366;2023-02-08T00:52:58;13.57;;;9.70;;
6529;SDS011;3298;42.688;23.366;2023-02-08T00:55:25;14.67;;;10.13;;
6529;SDS011;3298;42.688;23.366;2023-02-08T00:57:52;15.70;;;8.97;;
6529;SDS011;3298;42.688;23.366;2023-02-08T01:00:19;12.73;;;8.87;;
6529;SDS011;3298;42.688;23.366;2023-02-08T01:02:46;20.37;;;10.70;;
6529;SDS011;3298;42.688;23.366;2023-02-08T01:05:13;16.67;;;8.83;;
6529;SDS011;3298;42.688;23.366;2023-02-08T01:07:40;15.93;;;8.80;;
6529;SDS011;3298;42.688;23.366;2023-02-08T01:10:08;11.27;;;8.53;;
6529;SDS011;3298;42.688;23.366;2023-02-08T01:12:37;13.07;;;9.10;;
6529;SDS011;3298;42.688;23.366;2023-02-08T01:15:04;15.30;;;10.30;;
6529;SDS011;3298;42.688;23.366;2023-02-08T01:17:31;11.47;;;9.57;;
6529;SDS011;3298;42.688;23.366;2023-02-08T01:19:58;15.13;;;9.97;;
6529;SDS011;3298;42.688;23.366;2023-02-08T01:22:24;12.07;;;9.90;;
6529;SDS011;3298;42.688;23.366;2023-02-08T01:24:53;14.27;;;9.93;;
6529;SDS011;3298;42.688;23.366;2023-02-08T01:27:21;14.50;;;9.33;;
6529;SDS011;3298;42.688;23.366;2023-02-08T01:29:48;12.00;;;9.27;;
6529;SDS011;3298;42.688;23.366;2023-02-08T01:32:15;15.33;;;9.47;;
6529;SDS011;3298;42.688;23.366;2023-02-08T01:34:42;12.63;;;9.73;;
6529;SDS011;3298;42.688;23.366;2023-02-08T01:37:08;13.90;;;9.77;;
6529;SDS011;3298;42.688;23.366;2023-02-08T01:39:35;12.77;;;9.10;;
6529;SDS011;3298;42.688;23.366;2023-02-08T01:42:02;17.17;;;9.13;;
6529;SDS011;3298;42.688;23.366;2023-02-08T01:47:34;14.27;;;9.83;;
6529;SDS011;3298;42.688;23.366;2023-02-08T01:50:01;15.57;;;9.37;;
6529;SDS011;3298;42.688;23.366;2023-02-08T01:52:28;12.67;;;9.30;;
6529;SDS011;3298;42.688;23.366;2023-02-08T01:54:56;19.60;;;11.20;;
6529;SDS011;3298;42.688;23.366;2023-02-08T01:57:28;19.37;;;11.13;;
6529;SDS011;3298;42.688;23.366;2023-02-08T01:59:56;17.33;;;10.90;;
6529;SDS011;3298;42.688;23.366;2023-02-08T02:02:26;19.77;;;10.73;;
6529;SDS011;3298;42.688;23.366;2023-02-08T02:04:55;17.20;;;11.03;;
6529;SDS011;3298;42.688;23.366;2023-02-08T02:07:23;16.43;;;11.00;;
6529;SDS011;3298;42.688;23.366;2023-02-08T02:09:55;15.73;;;10.53;;
6529;SDS011;3298;42.688;23.366;2023-02-08T02:12:25;15.20;;;10.40;;
6529;SDS011;3298;42.688;23.366;2023-02-08T02:14:52;17.33;;;10.50;;
6529;SDS011;3298;42.688;23.366;2023-02-08T02:17:19;14.53;;;11.23;;
6529;SDS011;3298;42.688;23.366;2023-02-08T02:19:48;20.87;;;12.13;;
6529;SDS011;3298;42.688;23.366;2023-02-08T02:22:29;20.97;;;11.83;;
6529;SDS011;3298;42.688;23.366;2023-02-08T02:25:35;17.93;;;11.50;;
6529;SDS011;3298;42.688;23.366;2023-02-08T02:28:22;16.40;;;10.57;;
6529;SDS011;3298;42.688;23.366;2023-02-08T02:34:14;17.80;;;10.67;;
6529;SDS011;3298;42.688;23.366;2023-02-08T02:36:51;15.43;;;10.13;;
6529;SDS011;3298;42.688;23.366;2023-02-08T02:39:26;17.73;;;10.83;;
6529;SDS011;3298;42.688;23.366;2023-02-08T02:42:04;15.93;;;10.17;;
6529;SDS011;3298;42.688;23.366;2023-02-08T02:45:06;19.57;;;10.13;;
6529;SDS011;3298;42.688;23.366;2023-02-08T02:47:44;15.80;;;9.87;;
6529;SDS011;3298;42.688;23.366;2023-02-08T02:50:18;14.90;;;9.47;;
6529;SDS011;3298;42.688;23.366;2023-02-08T02:52:50;18.57;;;11.00;;
6529;SDS011;3298;42.688;23.366;2023-02-08T02:55:24;20.27;;;11.10;;
6529;SDS011;3298;42.688;23.366;2023-02-08T02:57:58;16.50;;;11.23;;
6529;SDS011;3298;42.688;23.366;2023-02-08T03:00:27;19.67;;;11.93;;
6529;SDS011;3298;42.688;23.366;2023-02-08T03:02:58;18.97;;;11.53;;
6529;SDS011;3298;42.688;23.366;2023-02-08T03:05:24;21.47;;;12.33;;
6529;SDS011;3298;42.688;23.366;2023-02-08T03:08:00;18.13;;;11.17;;
6529;SDS011;3298;42.688;23.366;2023-02-08T03:10:49;16.90;;;10.30;;
6529;SDS011;3298;42.688;23.366;2023-02-08T03:13:38;14.90;;;10.90;;
6529;SDS011;3298;42.688;23.366;2023-02-08T03:16:29;19.23;;;11.53;;
6529;SDS011;3298;42.688;23.366;2023-02-08T03:19:06;17.90;;;11.50;;
6529;SDS011;3298;42.688;23.366;2023-02-08T03:21:41;17.20;;;10.57;;
6529;SDS011;3298;42.688;23.366;2023-02-08T03:24:15;15.60;;;11.37;;
6529;SDS011;3298;42.688;23.366;2023-02-08T03:26:52;20.10;;;11.87;;
6529;SDS011;3298;42.688;23.366;2023-02-08T03:29:25;18.37;;;12.50;;
6529;SDS011;3298;42.688;23.366;2023-02-08T03:32:03;20.60;;;12.27;;
6529;SDS011;3298;42.688;23.366;2023-02-08T03:34:38;19.17;;;11.60;;
6529;SDS011;3298;42.688;23.366;2023-02-08T03:37:12;20.67;;;11.40;;
6529;SDS011;3298;42.688;23.366;2023-02-08T03:39:43;18.77;;;11.63;;
6529;SDS011;3298;42.688;23.366;2023-02-08T03:42:14;19.43;;;12.20;;
6529;SDS011;3298;42.688;23.366;2023-02-08T03:44:45;22.90;;;12.93;;
6529;SDS011;3298;42.688;23.366;2023-02-08T03:47:17;20.77;;;12.07;;
6529;SDS011;3298;42.688;23.366;2023-02-08T03:49:49;22.37;;;12.10;;
6529;SDS011;3298;42.688;23.366;2023-02-08T03:52:18;21.97;;;12.50;;
6529;SDS011;3298;42.688;23.366;2023-02-08T03:54:48;28.53;;;14.30;;
6529;SDS011;3298;42.688;23.366;2023-02-08T03:57:19;29.03;;;14.90;;
6529;SDS011;3298;42.688;23.366;2023-02-08T03:59:50;21.90;;;12.77;;
6529;SDS011;3298;42.688;23.366;2023-02-08T04:02:20;20.50;;;11.80;;
6529;SDS011;3298;42.688;23.366;2023-02-08T04:04:51;14.87;;;10.50;;
6529;SDS011;3298;42.688;23.366;2023-02-08T04:07:19;19.73;;;12.47;;
6529;SDS011;3298;42.688;23.366;2023-02-08T04:09:46;19.37;;;12.93;;
6529;SDS011;3298;42.688;23.366;2023-02-08T04:12:13;20.50;;;13.13;;
6529;SDS011;3298;42.688;23.366;2023-02-08T04:14:40;22.57;;;13.43;;
6529;SDS011;3298;42.688;23.366;2023-02-08T04:17:07;23.33;;;13.27;;
6529;SDS011;3298;42.688;23.366;2023-02-08T04:19:33;20.13;;;12.80;;
6529;SDS011;3298;42.688;23.366;2023-02-08T04:22:02;21.83;;;12.20;;
6529;SDS011;3298;42.688;23.366;2023-02-08T04:24:28;21.77;;;12.53;;
6529;SDS011;3298;42.688;23.366;2023-02-08T04:26:55;22.67;;;12.67;;
6529;SDS011;3298;42.688;23.366;2023-02-08T04:29:22;22.53;;;11.63;;
6529;SDS011;3298;42.688;23.366;2023-02-08T04:31:49;21.77;;;12.87;;
6529;SDS011;3298;42.688;23.366;2023-02-08T04:34:16;20.43;;;12.30;;
6529;SDS011;3298;42.688;23.366;2023-02-08T04:36:42;19.97;;;12.13;;
6529;SDS011;3298;42.688;23.366;2023-02-08T04:39:11;14.20;;;9.50;;
6529;SDS011;3298;42.688;23.366;2023-02-08T04:41:37;14.53;;;9.97;;
6529;SDS011;3298;42.688;23.366;2023-02-08T04:44:04;16.20;;;10.20;;
6529;SDS011;3298;42.688;23.366;2023-02-08T04:46:31;15.90;;;11.57;;
6529;SDS011;3298;42.688;23.366;2023-02-08T04:48:58;17.53;;;11.53;;
6529;SDS011;3298;42.688;23.366;2023-02-08T04:51:24;18.70;;;11.63;;
6529;SDS011;3298;42.688;23.366;2023-02-08T04:53:51;16.70;;;11.90;;
6529;SDS011;3298;42.688;23.366;2023-02-08T04:56:19;16.87;;;11.00;;
6529;SDS011;3298;42.688;23.366;2023-02-08T04:58:47;12.73;;;9.27;;
6529;SDS011;3298;42.688;23.366;2023-02-08T05:01:13;17.20;;;9.40;;
6529;SDS011;3298;42.688;23.366;2023-02-08T05:03:41;16.67;;;10.97;;
6529;SDS011;3298;42.688;23.366;2023-02-08T05:06:08;13.97;;;9.63;;
6529;SDS011;3298;42.688;23.366;2023-02-08T05:08:34;14.17;;;9.73;;
6529;SDS011;3298;42.688;23.366;2023-02-08T05:11:01;17.50;;;10.17;;
6529;SDS011;3298;42.688;23.366;2023-02-08T05:13:29;16.03;;;10.13;;
6529;SDS011;3298;42.688;23.366;2023-02-08T05:15:57;19.30;;;10.37;;
6529;SDS011;3298;42.688;23.366;2023-02-08T05:18:24;17.23;;;9.57;;
6529;SDS011;3298;42.688;23.366;2023-02-08T05:20:54;15.00;;;10.80;;
6529;SDS011;3298;42.688;23.366;2023-02-08T05:23:22;16.23;;;10.27;;
6529;SDS011;3298;42.688;23.366;2023-02-08T05:25:49;17.03;;;10.77;;
6529;SDS011;3298;42.688;23.366;2023-02-08T05:28:16;14.23;;;9.97;;
6529;SDS011;3298;42.688;23.366;2023-02-08T05:30:44;16.50;;;11.07;;
6529;SDS011;3298;42.688;23.366;2023-02-08T05:33:12;25.47;;;13.43;;
6529;SDS011;3298;42.688;23.366;2023-02-08T05:35:38;21.93;;;12.33;;
6529;SDS011;3298;42.688;23.366;2023-02-08T05:38:05;23.73;;;13.80;;
6529;SDS011;3298;42.688;23.366;2023-02-08T05:40:33;27.47;;;13.90;;
6529;SDS011;3298;42.688;23.366;2023-02-08T05:43:00;23.97;;;14.67;;
6529;SDS011;3298;42.688;23.366;2023-02-08T05:45:26;25.80;;;13.80;;
6529;SDS011;3298;42.688;23.366;2023-02-08T05:47:55;26.83;;;14.23;;
6529;SDS011;3298;42.688;23.366;2023-02-08T05:50:22;25.23;;;13.60;;
6529;SDS011;3298;42.688;23.366;2023-02-08T05:52:48;20.93;;;12.60;;
6529;SDS011;3298;42.688;23.366;2023-02-08T05:55:15;20.83;;;12.63;;
6529;SDS011;3298;42.688;23.366;2023-02-08T05:57:42;27.13;;;15.30;;
6529;SDS011;3298;42.688;23.366;2023-02-08T06:00:10;24.53;;;13.93;;
6529;SDS011;3298;42.688;23.366;2023-02-08T06:02:37;20.27;;;13.87;;
6529;SDS011;3298;42.688;23.366;2023-02-08T06:05:06;25.73;;;15.93;;
6529;SDS011;3298;42.688;23.366;2023-02-08T06:07:33;36.13;;;15.17;;
6529;SDS011;3298;42.688;23.366;2023-02-08T06:10:00;21.27;;;13.10;;
6529;SDS011;3298;42.688;23.366;2023-02-08T06:12:26;26.77;;;14.07;;
6529;SDS011;3298;42.688;23.366;2023-02-08T06:14:53;22.27;;;13.17;;
6529;SDS011;3298;42.688;23.366;2023-02-08T06:17:20;22.73;;;13.67;;
6529;SDS011;3298;42.688;23.366;2023-02-08T06:19:47;25.50;;;14.57;;
6529;SDS011;3298;42.688;23.366;2023-02-08T06:22:15;22.00;;;12.83;;
6529;SDS011;3298;42.688;23.366;2023-02-08T06:24:42;18.50;;;12.40;;
6529;SDS011;3298;42.688;23.366;2023-02-08T06:27:09;25.50;;;13.13;;
6529;SDS011;3298;42.688;23.366;2023-02-08T06:29:35;27.47;;;16.10;;
6529;SDS011;3298;42.688;23.366;2023-02-08T06:32:02;32.23;;;15.40;;
6529;SDS011;3298;42.688;23.366;2023-02-08T06:34:29;26.07;;;15.70;;
6529;SDS011;3298;42.688;23.366;2023-02-08T06:36:56;23.40;;;14.47;;
6529;SDS011;3298;42.688;23.366;2023-02-08T06:39:25;20.57;;;13.20;;
6529;SDS011;3298;42.688;23.366;2023-02-08T06:41:52;41.23;;;21.30;;
6529;SDS011;3298;42.688;23.366;2023-02-08T06:44:19;45.00;;;22.03;;
6529;SDS011;3298;42.688;23.366;2023-02-08T06:46:46;33.10;;;18.87;;
6529;SDS011;3298;42.688;23.366;2023-02-08T06:49:13;36.40;;;18.73;;
6529;SDS011;3298;42.688;23.366;2023-02-08T06:51:40;40.17;;;19.97;;
6529;SDS011;3298;42.688;23.366;2023-02-08T06:54:07;37.87;;;20.60;;
6529;SDS011;3298;42.688;23.366;2023-02-08T06:56:35;41.50;;;19.27;;
6529;SDS011;3298;42.688;23.366;2023-02-08T06:59:02;35.03;;;17.90;;
6529;SDS011;3298;42.688;23.366;2023-02-08T07:01:29;31.40;;;18.07;;
6529;SDS011;3298;42.688;23.366;2023-02-08T07:03:55;30.17;;;17.33;;
6529;SDS011;3298;42.688;23.366;2023-02-08T07:06:22;34.07;;;17.80;;
6529;SDS011;3298;42.688;23.366;2023-02-08T07:08:49;30.10;;;17.93;;
6529;SDS011;3298;42.688;23.366;2023-02-08T07:11:17;39.97;;;18.93;;
6529;SDS011;3298;42.688;23.366;2023-02-08T07:13:47;30.07;;;17.80;;
6529;SDS011;3298;42.688;23.366;2023-02-08T07:16:16;43.53;;;20.23;;
6529;SDS011;3298;42.688;23.366;2023-02-08T07:18:43;36.60;;;19.47;;
6529;SDS011;3298;42.688;23.366;2023-02-08T07:21:11;28.27;;;16.10;;
6529;SDS011;3298;42.688;23.366;2023-02-08T07:23:38;25.00;;;14.73;;
6529;SDS011;3298;42.688;23.366;2023-02-08T07:26:06;35.00;;;19.37;;
6529;SDS011;3298;42.688;23.366;2023-02-08T07:28:34;40.80;;;19.87;;
6529;SDS011;3298;42.688;23.366;2023-02-08T07:31:04;41.43;;;19.87;;
6529;SDS011;3298;42.688;23.366;2023-02-08T07:33:32;32.33;;;16.40;;
6529;SDS011;3298;42.688;23.366;2023-02-08T07:35:58;38.10;;;18.37;;
6529;SDS011;3298;42.688;23.366;2023-02-08T07:38:25;35.63;;;19.37;;
6529;SDS011;3298;42.688;23.366;2023-02-08T07:40:58;29.53;;;17.37;;
6529;SDS011;3298;42.688;23.366;2023-02-08T07:43:25;37.13;;;16.53;;
6529;SDS011;3298;42.688;23.366;2023-02-08T07:45:52;28.83;;;14.33;;
6529;SDS011;3298;42.688;23.366;2023-02-08T07:48:20;31.50;;;17.77;;
6529;SDS011;3298;42.688;23.366;2023-02-08T07:50:47;29.73;;;14.43;;
6529;SDS011;3298;42.688;23.366;2023-02-08T07:53:14;25.37;;;13.87;;
6529;SDS011;3298;42.688;23.366;2023-02-08T07:55:43;29.57;;;14.37;;
6529;SDS011;3298;42.688;23.366;2023-02-08T07:58:10;30.97;;;15.60;;
6529;SDS011;3298;42.688;23.366;2023-02-08T08:00:38;30.93;;;15.43;;
6529;SDS011;3298;42.688;23.366;2023-02-08T08:03:05;31.07;;;16.13;;
6529;SDS011;3298;42.688;23.366;2023-02-08T08:05:33;29.60;;;15.47;;
6529;SDS011;3298;42.688;23.366;2023-02-08T08:08:00;26.40;;;15.57;;
6529;SDS011;3298;42.688;23.366;2023-02-08T08:10:27;24.00;;;15.13;;
6529;SDS011;3298;42.688;23.366;2023-02-08T08:12:53;31.20;;;15.23;;
6529;SDS011;3298;42.688;23.366;2023-02-08T08:15:20;29.10;;;15.97;;
6529;SDS011;3298;42.688;23.366;2023-02-08T08:17:47;29.10;;;15.00;;
6529;SDS011;3298;42.688;23.366;2023-02-08T08:20:14;25.27;;;14.67;;
6529;SDS011;3298;42.688;23.366;2023-02-08T08:22:42;30.23;;;15.50;;
6529;SDS011;3298;42.688;23.366;2023-02-08T08:25:08;26.10;;;14.80;;
6529;SDS011;3298;42.688;23.366;2023-02-08T08:27:35;20.20;;;13.90;;
6529;SDS011;3298;42.688;23.366;2023-02-08T08:30:02;19.40;;;12.90;;
6529;SDS011;3298;42.688;23.366;2023-02-08T08:32:31;21.33;;;13.37;;
6529;SDS011;3298;42.688;23.366;2023-02-08T08:34:57;21.57;;;13.50;;
6529;SDS011;3298;42.688;23.366;2023-02-08T08:37:24;25.70;;;13.47;;
6529;SDS011;3298;42.688;23.366;2023-02-08T08:39:52;22.77;;;14.13;;
6529;SDS011;3298;42.688;23.366;2023-02-08T08:42:19;17.37;;;10.77;;
6529;SDS011;3298;42.688;23.366;2023-02-08T08:44:46;24.00;;;12.77;;
6529;SDS011;3298;42.688;23.366;2023-02-08T08:47:12;28.07;;;15.17;;
6529;SDS011;3298;42.688;23.366;2023-02-08T08:49:39;12.43;;;8.97;;
6529;SDS011;3298;42.688;23.366;2023-02-08T08:52:08;17.97;;;12.77;;
6529;SDS011;3298;42.688;23.366;2023-02-08T08:54:35;20.83;;;12.17;;
6529;SDS011;3298;42.688;23.366;2023-02-08T08:57:04;24.27;;;13.03;;
6529;SDS011;3298;42.688;23.366;2023-02-08T08:59:32;21.83;;;11.77;;
6529;SDS011;3298;42.688;23.366;2023-02-08T09:01:59;22.17;;;12.87;;
6529;SDS011;3298;42.688;23.366;2023-02-08T09:04:26;15.57;;;9.97;;
6529;SDS011;3298;42.688;23.366;2023-02-08T09:06:53;19.00;;;8.63;;
6529;SDS011;3298;42.688;23.366;2023-02-08T09:09:20;12.60;;;7.77;;
6529;SDS011;3298;42.688;23.366;2023-02-08T09:11:48;14.87;;;10.23;;
6529;SDS011;3298;42.688;23.366;2023-02-08T09:14:16;15.03;;;10.00;;
6529;SDS011;3298;42.688;23.366;2023-02-08T09:16:43;16.67;;;11.03;;
6529;SDS011;3298;42.688;23.366;2023-02-08T09:19:12;16.93;;;8.77;;
6529;SDS011;3298;42.688;23.366;2023-02-08T09:21:39;12.73;;;9.40;;
6529;SDS011;3298;42.688;23.366;2023-02-08T09:24:07;15.67;;;10.63;;
6529;SDS011;3298;42.688;23.366;2023-02-08T09:26:34;18.27;;;11.37;;
6529;SDS011;3298;42.688;23.366;2023-02-08T09:29:02;18.20;;;11.90;;
6529;SDS011;3298;42.688;23.366;2023-02-08T09:31:31;18.83;;;12.97;;
6529;SDS011;3298;42.688;23.366;2023-02-08T09:34:00;19.57;;;10.83;;
6529;SDS011;3298;42.688;23.366;2023-02-08T09:36:28;14.03;;;8.83;;
6529;SDS011;3298;42.688;23.366;2023-02-08T09:38:58;11.67;;;8.43;;
6529;SDS011;3298;42.688;23.366;2023-02-08T09:41:31;10.03;;;8.23;;
6529;SDS011;3298;42.688;23.366;2023-02-08T09:44:09;10.03;;;6.67;;
6529;SDS011;3298;42.688;23.366;2023-02-08T09:46:50;12.67;;;9.90;;
6529;SDS011;3298;42.688;23.366;2023-02-08T09:49:23;21.57;;;13.53;;
6529;SDS011;3298;42.688;23.366;2023-02-08T09:51:54;13.70;;;9.07;;
6529;SDS011;3298;42.688;23.366;2023-02-08T09:54:27;15.23;;;9.07;;
6529;SDS011;3298;42.688;23.366;2023-02-08T09:56:57;18.07;;;9.30;;
6529;SDS011;3298;42.688;23.366;2023-02-08T09:59:28;16.43;;;9.17;;
6529;SDS011;3298;42.688;23.366;2023-02-08T10:02:00;13.37;;;9.87;;
6529;SDS011;3298;42.688;23.366;2023-02-08T10:04:36;19.70;;;9.67;;
6529;SDS011;3298;42.688;23.366;2023-02-08T10:07:20;11.60;;;8.43;;
6529;SDS011;3298;42.688;23.366;2023-02-08T10:09:47;13.63;;;9.80;;
6529;SDS011;3298;42.688;23.366;2023-02-08T10:12:16;14.93;;;8.53;;
6529;SDS011;3298;42.688;23.366;2023-02-08T10:14:53;6.93;;;6.23;;
6529;SDS011;3298;42.688;23.366;2023-02-08T10:20:23;11.80;;;8.03;;
6529;SDS011;3298;42.688;23.366;2023-02-08T10:23:00;12.83;;;9.07;;
6529;SDS011;3298;42.688;23.366;2023-02-08T10:25:44;11.57;;;7.90;;
6529;SDS011;3298;42.688;23.366;2023-02-08T10:28:30;8.77;;;6.93;;
6529;SDS011;3298;42.688;23.366;2023-02-08T10:31:14;8.60;;;7.00;;
6529;SDS011;3298;42.688;23.366;2023-02-08T10:33:58;7.97;;;5.80;;
6529;SDS011;3298;42.688;23.366;2023-02-08T10:36:28;6.10;;;5.60;;
6529;SDS011;3298;42.688;23.366;2023-02-08T10:38:58;5.50;;;4.77;;
6529;SDS011;3298;42.688;23.366;2023-02-08T10:41:28;13.97;;;7.60;;
6529;SDS011;3298;42.688;23.366;2023-02-08T10:44:00;17.97;;;7.77;;
6529;SDS011;3298;42.688;23.366;2023-02-08T10:46:31;10.53;;;7.37;;
6529;SDS011;3298;42.688;23.366;2023-02-08T10:49:07;9.07;;;6.53;;
6529;SDS011;3298;42.688;23.366;2023-02-08T10:51:40;10.80;;;8.10;;
6529;SDS011;3298;42.688;23.366;2023-02-08T10:54:08;6.23;;;5.30;;
6529;SDS011;3298;42.688;23.366;2023-02-08T10:56:39;26.17;;;11.10;;
6529;SDS011;3298;42.688;23.366;2023-02-08T10:59:15;10.00;;;6.63;;
6529;SDS011;3298;42.688;23.366;2023-02-08T11:01:45;7.33;;;6.60;;
6529;SDS011;3298;42.688;23.366;2023-02-08T11:04:15;11.37;;;5.53;;
6529;SDS011;3298;42.688;23.366;2023-02-08T11:06:43;9.93;;;7.07;;
6529;SDS011;3298;42.688;23.366;2023-02-08T11:09:20;18.60;;;9.00;;
6529;SDS011;3298;42.688;23.366;2023-02-08T11:11:49;5.00;;;4.63;;
6529;SDS011;3298;42.688;23.366;2023-02-08T11:14:19;16.27;;;7.37;;
6529;SDS011;3298;42.688;23.366;2023-02-08T11:16:50;9.33;;;6.20;;
6529;SDS011;3298;42.688;23.366;2023-02-08T11:19:22;6.73;;;4.47;;
6529;SDS011;3298;42.688;23.366;2023-02-08T11:21:55;7.23;;;6.53;;
6529;SDS011;3298;42.688;23.366;2023-02-08T11:24:25;7.33;;;6.33;;
6529;SDS011;3298;42.688;23.366;2023-02-08T11:26:54;17.30;;;8.73;;
6529;SDS011;3298;42.688;23.366;2023-02-08T11:29:22;10.20;;;8.00;;
6529;SDS011;3298;42.688;23.366;2023-02-08T11:31:55;9.03;;;7.03;;
6529;SDS011;3298;42.688;23.366;2023-02-08T11:34:25;10.53;;;6.93;;
6529;SDS011;3298;42.688;23.366;2023-02-08T11:36:55;13.20;;;7.23;;
6529;SDS011;3298;42.688;23.366;2023-02-08T11:39:23;11.27;;;6.27;;
6529;SDS011;3298;42.688;23.366;2023-02-08T11:41:54;7.87;;;5.00;;
6529;SDS011;3298;42.688;23.366;2023-02-08T11:44:25;3.80;;;3.50;;
6529;SDS011;3298;42.688;23.366;2023-02-08T11:46:53;7.73;;;5.53;;
6529;SDS011;3298;42.688;23.366;2023-02-08T11:49:23;13.00;;;8.03;;
6529;SDS011;3298;42.688;23.366;2023-02-08T11:51:54;14.23;;;7.43;;
6529;SDS011;3298;42.688;23.366;2023-02-08T11:54:34;40.17;;;11.67;;
6529;SDS011;3298;42.688;23.366;2023-02-08T11:57:15;6.23;;;5.60;;
6529;SDS011;3298;42.688;23.366;2023-02-08T11:59:44;12.60;;;4.43;;
6529;SDS011;3298;42.688;23.366;2023-02-08T12:02:28;6.97;;;6.27;;
6529;SDS011;3298;42.688;23.366;2023-02-08T12:05:01;11.50;;;7.83;;
6529;SDS011;3298;42.688;23.366;2023-02-08T12:07:32;8.03;;;7.03;;
6529;SDS011;3298;42.688;23.366;2023-02-08T12:10:15;10.17;;;5.83;;
6529;SDS011;3298;42.688;23.366;2023-02-08T12:15:50;5.57;;;3.57;;
6529;SDS011;3298;42.688;23.366;2023-02-08T12:18:29;14.27;;;6.60;;
6529;SDS011;3298;42.688;23.366;2023-02-08T12:21:13;10.40;;;6.37;;
6529;SDS011;3298;42.688;23.366;2023-02-08T12:23:45;11.30;;;5.63;;
6529;SDS011;3298;42.688;23.366;2023-02-08T12:26:19;6.30;;;5.00;;
6529;SDS011;3298;42.688;23.366;2023-02-08T12:28:58;4.93;;;4.43;;
6529;SDS011;3298;42.688;23.366;2023-02-08T12:31:42;28.50;;;14.37;;
6529;SDS011;3298;42.688;23.366;2023-02-08T12:34:15;12.90;;;7.30;;
6529;SDS011;3298;42.688;23.366;2023-02-08T12:37:01;36.93;;;12.43;;
6529;SDS011;3298;42.688;23.366;2023-02-08T12:39:58;8.80;;;4.77;;
6529;SDS011;3298;42.688;23.366;2023-02-08T12:42:54;4.90;;;4.40;;
6529;SDS011;3298;42.688;23.366;2023-02-08T12:48:31;51.50;;;12.13;;
6529;SDS011;3298;42.688;23.366;2023-02-08T12:51:10;16.00;;;7.03;;
6529;SDS011;3298;42.688;23.366;2023-02-08T12:53:49;7.30;;;3.17;;
6529;SDS011;3298;42.688;23.366;2023-02-08T12:56:20;6.57;;;4.73;;
6529;SDS011;3298;42.688;23.366;2023-02-08T12:58:53;7.10;;;4.60;;
6529;SDS011;3298;42.688;23.366;2023-02-08T13:01:25;6.37;;;4.47;;
6529;SDS011;3298;42.688;23.366;2023-02-08T13:03:59;26.13;;;9.43;;
6529;SDS011;3298;42.688;23.366;2023-02-08T13:06:35;22.43;;;4.93;;
6529;SDS011;3298;42.688;23.366;2023-02-08T13:09:11;10.40;;;5.93;;
6529;SDS011;3298;42.688;23.366;2023-02-08T13:11:45;8.23;;;5.03;;
6529;SDS011;3298;42.688;23.366;2023-02-08T13:14:20;4.33;;;3.90;;
6529;SDS011;3298;42.688;23.366;2023-02-08T13:16:55;11.90;;;4.93;;
6529;SDS011;3298;42.688;23.366;2023-02-08T13:19:28;6.40;;;4.60;;
6529;SDS011;3298;42.688;23.366;2023-02-08T13:21:57;14.87;;;4.57;;
6529;SDS011;3298;42.688;23.366;2023-02-08T13:24:27;23.10;;;6.40;;
6529;SDS011;3298;42.688;23.366;2023-02-08T13:26:59;10.93;;;5.70;;
6529;SDS011;3298;42.688;23.366;2023-02-08T13:29:26;12.87;;;5.83;;
6529;SDS011;3298;42.688;23.366;2023-02-08T13:31:55;5.43;;;3.37;;
6529;SDS011;3298;42.688;23.366;2023-02-08T13:34:28;5.10;;;4.20;;
6529;SDS011;3298;42.688;23.366;2023-02-08T13:36:59;18.63;;;5.27;;
6529;SDS011;3298;42.688;23.366;2023-02-08T13:39:33;10.73;;;5.73;;
6529;SDS011;3298;42.688;23.366;2023-02-08T13:42:03;17.47;;;7.97;;
6529;SDS011;3298;42.688;23.366;2023-02-08T13:44:32;12.93;;;5.40;;
6529;SDS011;3298;42.688;23.366;2023-02-08T13:47:01;4.50;;;3.80;;
6529;SDS011;3298;42.688;23.366;2023-02-08T13:49:50;5.97;;;4.97;;
6529;SDS011;3298;42.688;23.366;2023-02-08T14:01:27;8.53;;;5.57;;
6529;SDS011;3298;42.688;23.366;2023-02-08T14:07:02;14.33;;;8.30;;
6529;SDS011;3298;42.688;23.366;2023-02-08T14:09:45;5.53;;;5.00;;
6529;SDS011;3298;42.688;23.366;2023-02-08T14:12:21;12.40;;;6.67;;
6529;SDS011;3298;42.688;23.366;2023-02-08T14:15:05;17.23;;;8.87;;
6529;SDS011;3298;42.688;23.366;2023-02-08T14:17:33;6.63;;;5.27;;
6529;SDS011;3298;42.688;23.366;2023-02-08T14:20:01;17.23;;;6.97;;
6529;SDS011;3298;42.688;23.366;2023-02-08T14:22:32;18.90;;;8.87;;
6529;SDS011;3298;42.688;23.366;2023-02-08T14:25:03;17.10;;;8.07;;
6529;SDS011;3298;42.688;23.366;2023-02-08T14:27:34;15.97;;;9.13;;
6529;SDS011;3298;42.688;23.366;2023-02-08T14:30:05;33.13;;;13.40;;
6529;SDS011;3298;42.688;23.366;2023-02-08T14:32:45;15.67;;;8.57;;
6529;SDS011;3298;42.688;23.366;2023-02-08T14:35:16;11.03;;;7.57;;
6529;SDS011;3298;42.688;23.366;2023-02-08T14:37:47;8.90;;;5.63;;
6529;SDS011;3298;42.688;23.366;2023-02-08T14:40:31;6.50;;;3.97;;
6529;SDS011;3298;42.688;23.366;2023-02-08T14:43:27;16.83;;;8.47;;
6529;SDS011;3298;42.688;23.366;2023-02-08T14:45:57;28.07;;;10.73;;
6529;SDS011;3298;42.688;23.366;2023-02-08T14:48:44;13.93;;;5.63;;
6529;SDS011;3298;42.688;23.366;2023-02-08T14:51:15;17.50;;;8.47;;
6529;SDS011;3298;42.688;23.366;2023-02-08T14:53:54;54.20;;;22.60;;
6529;SDS011;3298;42.688;23.366;2023-02-08T14:56:25;9.90;;;6.17;;
6529;SDS011;3298;42.688;23.366;2023-02-08T14:58:57;8.17;;;6.50;;
6529;SDS011;3298;42.688;23.366;2023-02-08T15:01:29;10.43;;;8.27;;
6529;SDS011;3298;42.688;23.366;2023-02-08T15:04:05;7.77;;;6.67;;
6529;SDS011;3298;42.688;23.366;2023-02-08T15:06:46;9.83;;;6.50;;
6529;SDS011;3298;42.688;23.366;2023-02-08T15:09:33;15.70;;;8.67;;
6529;SDS011;3298;42.688;23.366;2023-02-08T15:12:03;7.37;;;6.47;;
6529;SDS011;3298;42.688;23.366;2023-02-08T15:14:33;12.27;;;7.33;;
6529;SDS011;3298;42.688;23.366;2023-02-08T15:17:02;13.27;;;8.53;;
6529;SDS011;3298;42.688;23.366;2023-02-08T15:19:29;9.07;;;6.27;;
6529;SDS011;3298;42.688;23.366;2023-02-08T15:24:48;8.77;;;6.13;;
6529;SDS011;3298;42.688;23.366;2023-02-08T15:27:18;6.87;;;5.67;;
6529;SDS011;3298;42.688;23.366;2023-02-08T15:29:47;10.83;;;6.77;;
6529;SDS011;3298;42.688;23.366;2023-02-08T15:32:15;11.60;;;6.67;;
6529;SDS011;3298;42.688;23.366;2023-02-08T15:34:52;8.10;;;6.80;;